createdAt,value
2022-12-18T00:00:42.421Z,15.27
2022-12-18T00:03:45.135Z,16.98
2022-12-18T00:06:50.103Z,11.27
2022-12-18T00:09:52.120Z,15.23
2022-12-18T00:12:54.115Z,15.85
2022-12-18T00:15:56.592Z,15.43
2022-12-18T00:18:59.088Z,13.45
2022-12-18T00:22:01.154Z,15.82
2022-12-18T00:25:03.594Z,15.80
2022-12-18T00:28:05.708Z,12.63
2022-12-18T00:31:09.565Z,11.83
2022-12-18T00:34:13.078Z,14.80
2022-12-18T00:37:19.866Z,13.02
2022-12-18T00:40:26.367Z,11.47
2022-12-18T00:43:29.505Z,14.52
2022-12-18T00:46:32.007Z,14.27
2022-12-18T00:49:34.026Z,13.77
2022-12-18T00:52:36.017Z,10.52
2022-12-18T00:55:42.501Z,15.85
2022-12-18T00:58:44.471Z,15.65
2022-12-18T01:01:47.000Z,10.87
2022-12-18T01:04:49.188Z,15.98
2022-12-18T01:07:56.087Z,17.25
2022-12-18T01:10:58.090Z,16.50
2022-12-18T01:14:01.180Z,18.85
2022-12-18T01:17:04.695Z,13.15
2022-12-18T01:20:09.701Z,17.30
2022-12-18T01:23:11.686Z,17.45
2022-12-18T01:26:18.112Z,18.73
2022-12-18T01:29:20.157Z,18.45
2022-12-18T01:32:23.071Z,18.40
2022-12-18T01:35:25.688Z,17.00
2022-12-18T01:38:29.553Z,18.55
2022-12-18T01:41:52.463Z,15.20
2022-12-18T01:44:56.686Z,14.85
2022-12-18T01:48:00.225Z,15.65
2022-12-18T01:51:02.396Z,12.20
2022-12-18T01:54:04.458Z,18.33
2022-12-18T01:57:06.570Z,18.15
2022-12-18T02:00:11.273Z,16.63
2022-12-18T02:03:16.124Z,13.93
2022-12-18T02:06:21.864Z,14.90
2022-12-18T02:09:33.260Z,15.35
2022-12-18T02:12:41.115Z,13.67
2022-12-18T02:16:01.808Z,18.05
2022-12-18T02:19:16.872Z,16.77
2022-12-18T02:22:35.681Z,15.60
2022-12-18T02:25:56.504Z,17.35
2022-12-18T02:29:03.069Z,17.08
2022-12-18T02:32:09.335Z,13.25
2022-12-18T02:35:15.931Z,12.43
2022-12-18T02:38:18.884Z,16.85
2022-12-18T02:41:24.258Z,13.63
2022-12-18T02:44:27.445Z,11.57
2022-12-18T02:47:32.390Z,10.48
2022-12-18T02:50:42.884Z,17.35
2022-12-18T02:53:47.135Z,12.95
2022-12-18T02:56:55.153Z,14.55
2022-12-18T03:00:01.638Z,15.60
2022-12-18T03:03:07.760Z,17.25
2022-12-18T03:06:21.925Z,18.43
2022-12-18T03:09:33.987Z,17.48
2022-12-18T03:12:38.896Z,18.27
2022-12-18T03:15:48.155Z,13.77
2022-12-18T03:18:53.430Z,18.05
2022-12-18T03:21:56.733Z,15.70
2022-12-18T03:25:02.062Z,17.27
2022-12-18T03:28:07.133Z,18.17
2022-12-18T03:31:11.218Z,18.02
2022-12-18T03:34:18.465Z,17.10
2022-12-18T03:37:22.288Z,17.90
2022-12-18T03:40:28.029Z,17.70
2022-12-18T03:43:48.995Z,14.80
2022-12-18T03:46:51.269Z,16.33
2022-12-18T03:50:12.507Z,15.40
2022-12-18T03:53:34.997Z,18.67
2022-12-18T03:56:39.242Z,17.83
2022-12-18T03:59:42.474Z,18.95
2022-12-18T04:02:47.094Z,17.80
2022-12-18T04:05:55.861Z,19.17
2022-12-18T04:08:59.075Z,20.50
2022-12-18T04:12:01.896Z,19.98
2022-12-18T04:15:05.425Z,22.20
2022-12-18T04:18:07.583Z,19.63
2022-12-18T04:21:15.860Z,19.83
2022-12-18T04:24:18.023Z,20.20
2022-12-18T04:27:29.233Z,19.90
2022-12-18T04:30:33.664Z,18.83
2022-12-18T04:33:35.982Z,20.83
2022-12-18T04:36:38.776Z,20.50
2022-12-18T04:39:41.063Z,21.17
2022-12-18T04:42:50.318Z,19.15
2022-12-18T04:45:52.405Z,19.48
2022-12-18T04:48:54.475Z,20.27
2022-12-18T04:51:56.542Z,23.58
2022-12-18T04:54:58.535Z,23.73
2022-12-18T04:58:00.526Z,22.25
2022-12-18T05:01:02.691Z,16.95
2022-12-18T05:04:05.336Z,21.17
2022-12-18T05:07:07.396Z,18.10
2022-12-18T05:10:09.601Z,18.73
2022-12-18T05:13:12.464Z,23.67
2022-12-18T05:16:14.652Z,19.48
2022-12-18T05:19:16.895Z,20.90
2022-12-18T05:22:18.961Z,20.80
2022-12-18T05:25:21.421Z,24.13
2022-12-18T05:28:24.700Z,24.55
2022-12-18T05:31:26.811Z,24.33
2022-12-18T05:34:28.882Z,22.67
2022-12-18T05:37:30.859Z,24.42
2022-12-18T05:40:32.880Z,19.83
2022-12-18T05:43:35.995Z,18.60
2022-12-18T05:46:38.125Z,23.27
2022-12-18T05:49:42.892Z,22.57
2022-12-18T05:52:45.016Z,18.05
2022-12-18T05:55:47.380Z,22.98
2022-12-18T05:58:52.300Z,22.30
2022-12-18T06:01:54.393Z,18.92
2022-12-18T06:04:56.456Z,23.80
2022-12-18T06:07:58.489Z,21.10
2022-12-18T06:11:00.557Z,25.47
2022-12-18T06:14:03.081Z,21.90
2022-12-18T06:17:05.092Z,26.23
2022-12-18T06:20:08.042Z,24.53
2022-12-18T06:23:10.491Z,23.35
2022-12-18T06:26:13.252Z,25.17
2022-12-18T06:29:15.246Z,23.60
2022-12-18T06:32:17.801Z,24.45
2022-12-18T06:35:19.792Z,25.65
2022-12-18T06:38:23.135Z,23.30
2022-12-18T06:41:25.160Z,23.80
2022-12-18T06:44:27.126Z,25.60
2022-12-18T06:47:29.358Z,23.05
2022-12-18T06:50:31.357Z,25.00
2022-12-18T06:53:34.295Z,19.15
2022-12-18T06:56:36.317Z,27.73
2022-12-18T06:59:38.277Z,26.83
2022-12-18T07:02:40.466Z,21.88
2022-12-18T07:05:42.500Z,24.38
2022-12-18T07:08:44.775Z,20.17
2022-12-18T07:11:46.718Z,23.87
2022-12-18T07:14:48.696Z,26.23
2022-12-18T07:17:50.684Z,26.10
2022-12-18T07:20:52.664Z,23.47
2022-12-18T07:23:54.936Z,22.27
2022-12-18T07:26:56.941Z,23.02
2022-12-18T07:29:58.928Z,23.50
2022-12-18T07:33:01.023Z,23.00
2022-12-18T07:36:04.694Z,22.65
2022-12-18T07:39:06.825Z,23.10
2022-12-18T07:42:27.344Z,22.73
2022-12-18T07:45:29.995Z,23.35
2022-12-18T07:48:32.239Z,25.42
2022-12-18T07:51:34.219Z,27.33
2022-12-18T07:54:36.257Z,25.02
2022-12-18T07:57:59.224Z,22.67
2022-12-18T08:01:07.664Z,23.48
2022-12-18T08:04:09.717Z,25.38
2022-12-18T08:07:11.793Z,27.13
2022-12-18T08:10:14.090Z,24.23
2022-12-18T08:13:16.092Z,22.73
2022-12-18T08:16:18.712Z,24.00
2022-12-18T08:19:21.301Z,22.83
2022-12-18T08:22:23.335Z,27.13
2022-12-18T08:25:25.536Z,25.20
2022-12-18T08:28:27.519Z,26.75
2022-12-18T08:31:30.460Z,25.52
2022-12-18T08:34:32.571Z,25.90
2022-12-18T08:37:34.807Z,31.10
2022-12-18T08:40:36.815Z,29.52
2022-12-18T08:43:57.459Z,27.57
2022-12-18T08:46:59.468Z,26.52
2022-12-18T08:50:01.490Z,28.42
2022-12-18T08:53:03.628Z,35.23
2022-12-18T08:56:05.993Z,38.53
2022-12-18T08:59:08.039Z,27.48
2022-12-18T09:02:13.207Z,28.52
2022-12-18T09:05:15.305Z,29.10
2022-12-18T09:08:17.306Z,29.35
2022-12-18T09:11:23.818Z,31.38
2022-12-18T09:14:25.820Z,32.20
2022-12-18T09:17:27.872Z,31.40
2022-12-18T09:20:31.009Z,30.92
2022-12-18T09:23:33.066Z,34.85
2022-12-18T09:26:35.096Z,41.93
2022-12-18T09:29:37.689Z,37.67
2022-12-18T09:32:39.667Z,32.20
2022-12-18T09:35:42.672Z,45.08
2022-12-18T09:38:44.871Z,42.13
2022-12-18T09:41:54.682Z,32.17
2022-12-18T09:44:56.823Z,29.55
2022-12-18T09:47:58.882Z,36.88
2022-12-18T09:51:06.924Z,29.17
2022-12-18T09:54:13.330Z,19.13
2022-12-18T09:57:19.768Z,26.65
2022-12-18T10:00:23.312Z,21.08
2022-12-18T10:03:25.376Z,23.47
2022-12-18T10:06:36.848Z,21.42
2022-12-18T10:09:44.338Z,24.15
2022-12-18T10:12:59.524Z,26.60
2022-12-18T10:16:04.693Z,19.57
2022-12-18T10:19:12.646Z,18.55
2022-12-18T10:22:20.613Z,20.27
2022-12-18T10:25:22.785Z,19.93
2022-12-18T10:28:25.719Z,20.50
2022-12-18T10:31:27.813Z,20.73
2022-12-18T10:34:29.885Z,21.00
2022-12-18T10:37:31.867Z,17.50
2022-12-18T10:40:48.152Z,22.50
2022-12-18T10:44:10.080Z,19.40
2022-12-18T10:47:17.000Z,21.08
2022-12-18T10:50:20.526Z,19.52
2022-12-18T10:53:27.285Z,18.10
2022-12-18T10:56:30.727Z,20.67
2022-12-18T10:59:50.413Z,19.48
2022-12-18T11:02:53.004Z,19.63
2022-12-18T11:06:25.591Z,18.80
2022-12-18T11:09:29.356Z,21.27
2022-12-18T11:12:31.622Z,21.43
2022-12-18T11:15:34.323Z,21.70
2022-12-18T11:18:37.122Z,20.77
2022-12-18T11:21:43.285Z,20.08
2022-12-18T11:25:22.821Z,20.37
2022-12-18T11:28:36.843Z,21.37
2022-12-18T11:31:38.902Z,22.88
2022-12-18T11:34:42.338Z,20.05
2022-12-18T11:37:47.538Z,20.40
2022-12-18T11:40:57.456Z,19.97
2022-12-18T11:44:03.450Z,18.70
2022-12-18T11:47:26.652Z,17.98
2022-12-18T11:50:37.577Z,33.33
2022-12-18T11:53:41.033Z,17.90
2022-12-18T11:56:54.767Z,14.17
2022-12-18T12:00:16.833Z,14.88
2022-12-18T12:03:37.968Z,13.68
2022-12-18T12:07:03.722Z,14.77
2022-12-18T12:10:05.693Z,15.23
2022-12-18T12:13:26.299Z,18.07
2022-12-18T12:16:28.269Z,14.30
2022-12-18T12:19:47.215Z,16.48
2022-12-18T12:22:56.254Z,15.32
2022-12-18T12:26:10.311Z,15.48
2022-12-18T12:29:22.960Z,14.97
2022-12-18T12:32:27.812Z,15.70
2022-12-18T12:35:52.852Z,16.52
2022-12-18T12:39:00.926Z,14.75
2022-12-18T12:42:23.657Z,16.57
2022-12-18T12:45:30.547Z,16.50
2022-12-18T12:48:36.456Z,16.77
2022-12-18T12:51:41.452Z,15.32
2022-12-18T12:54:44.528Z,14.63
2022-12-18T12:58:06.631Z,18.10
2022-12-18T13:01:37.872Z,16.17
2022-12-18T13:05:01.960Z,15.95
2022-12-18T13:08:07.145Z,16.25
2022-12-18T13:11:47.582Z,15.40
2022-12-18T13:14:49.941Z,20.77
2022-12-18T13:18:24.957Z,21.42
2022-12-18T13:21:28.181Z,21.30
2022-12-18T13:24:31.896Z,20.23
2022-12-18T13:27:46.609Z,22.45
2022-12-18T13:30:50.940Z,21.70
2022-12-18T13:34:26.314Z,22.27
2022-12-18T13:37:42.659Z,24.42
2022-12-18T13:40:47.605Z,25.95
2022-12-18T13:43:49.911Z,22.80
2022-12-18T13:46:52.548Z,22.73
2022-12-18T13:49:54.855Z,23.85
2022-12-18T13:52:56.899Z,22.73
2022-12-18T13:55:59.323Z,21.40
2022-12-18T13:59:06.615Z,21.50
2022-12-18T14:02:19.548Z,24.33
2022-12-18T14:05:29.351Z,26.55
2022-12-18T14:08:34.750Z,27.43
2022-12-18T14:11:36.944Z,26.77
2022-12-18T14:14:42.436Z,26.45
2022-12-18T14:17:44.488Z,29.00
2022-12-18T14:20:52.133Z,28.50
2022-12-18T14:24:09.823Z,33.53
2022-12-18T14:27:21.687Z,33.60
2022-12-18T14:30:23.671Z,31.73
2022-12-18T14:33:26.928Z,37.72
2022-12-18T14:36:29.618Z,30.90
2022-12-18T14:39:31.621Z,34.23
2022-12-18T14:42:34.843Z,36.17
2022-12-18T14:45:42.247Z,35.17
2022-12-18T14:48:48.580Z,38.03
2022-12-18T14:51:58.062Z,37.85
2022-12-18T14:55:01.251Z,37.80
2022-12-18T14:58:03.304Z,42.30
2022-12-18T15:01:05.395Z,40.90
2022-12-18T15:04:27.443Z,40.75
2022-12-18T15:07:40.361Z,47.60
2022-12-18T15:10:47.914Z,70.60
2022-12-18T15:13:49.932Z,58.83
2022-12-18T15:16:53.367Z,58.45
2022-12-18T15:20:00.796Z,49.87
2022-12-18T15:23:02.829Z,50.15
2022-12-18T15:26:10.034Z,45.67
2022-12-18T15:29:24.336Z,46.13
2022-12-18T15:32:26.548Z,42.60
2022-12-18T15:35:28.586Z,41.70
2022-12-18T15:38:30.987Z,44.03
2022-12-18T15:41:35.219Z,44.40
2022-12-18T15:44:38.462Z,47.45
2022-12-18T15:47:41.095Z,45.60
2022-12-18T15:50:43.103Z,53.47
2022-12-18T15:53:45.584Z,53.78
2022-12-18T15:57:06.064Z,60.65
2022-12-18T16:00:12.653Z,65.93
2022-12-18T16:03:14.906Z,75.88
2022-12-18T16:06:17.017Z,70.95
2022-12-18T16:09:24.507Z,67.63
2022-12-18T16:12:28.193Z,65.17
2022-12-18T16:15:30.278Z,69.97
2022-12-18T16:18:32.296Z,74.38
2022-12-18T16:21:34.363Z,74.40
2022-12-18T16:24:37.349Z,74.15
2022-12-18T16:27:39.327Z,83.63
2022-12-18T16:30:41.434Z,68.90
2022-12-18T16:33:43.940Z,72.75
2022-12-18T16:36:46.416Z,68.10
2022-12-18T16:39:48.556Z,69.38
2022-12-18T16:42:50.606Z,66.67
2022-12-18T16:45:52.634Z,69.50
2022-12-18T16:48:54.643Z,63.58
2022-12-18T16:51:56.755Z,74.50
2022-12-18T16:54:58.802Z,81.70
2022-12-18T16:58:00.953Z,97.55
2022-12-18T17:01:07.936Z,103.97
2022-12-18T17:04:10.235Z,92.68
2022-12-18T17:07:12.671Z,93.82
2022-12-18T17:10:14.916Z,87.07
2022-12-18T17:13:19.232Z,85.23
2022-12-18T17:16:25.301Z,83.13
2022-12-18T17:19:27.727Z,80.65
2022-12-18T17:22:29.741Z,77.97
2022-12-18T17:25:31.789Z,73.63
2022-12-18T17:28:34.396Z,81.20
2022-12-18T17:31:36.807Z,85.28
2022-12-18T17:34:38.938Z,94.32
2022-12-18T17:37:40.949Z,97.13
2022-12-18T17:40:46.215Z,106.45
2022-12-18T17:43:55.371Z,100.53
2022-12-18T17:46:57.447Z,103.07
2022-12-18T17:49:59.589Z,98.85
2022-12-18T17:53:01.618Z,101.60
2022-12-18T17:56:05.768Z,103.22
2022-12-18T17:59:07.797Z,145.55
2022-12-18T18:02:11.496Z,186.57
2022-12-18T18:05:14.389Z,173.52
2022-12-18T18:08:20.153Z,187.43
2022-12-18T18:11:41.535Z,188.63
2022-12-18T18:14:43.590Z,187.00
2022-12-18T18:17:45.781Z,189.25
2022-12-18T18:20:47.815Z,178.40
2022-12-18T18:23:49.842Z,175.30
2022-12-18T18:26:54.710Z,196.32
2022-12-18T18:29:56.775Z,229.98
2022-12-18T18:32:58.801Z,284.85
2022-12-18T18:36:01.357Z,295.20
2022-12-18T18:39:03.457Z,191.80
2022-12-18T18:42:05.545Z,132.10
2022-12-18T18:45:07.915Z,118.53
2022-12-18T18:48:10.503Z,124.70
2022-12-18T18:51:15.593Z,118.13
2022-12-18T18:54:23.504Z,107.40
2022-12-18T18:57:30.086Z,123.72
2022-12-18T19:00:32.606Z,154.27
2022-12-18T19:03:35.918Z,135.80
2022-12-18T19:06:37.955Z,123.10
2022-12-18T19:09:41.218Z,126.13
2022-12-18T19:13:01.725Z,131.82
2022-12-18T19:16:06.248Z,135.30
2022-12-18T19:19:08.681Z,144.30
2022-12-18T19:22:11.361Z,141.65
2022-12-18T19:25:13.594Z,144.23
2022-12-18T19:28:21.803Z,139.63
2022-12-18T19:31:28.050Z,139.13
2022-12-18T19:34:32.472Z,149.32
2022-12-18T19:37:35.017Z,186.10
2022-12-18T19:40:40.720Z,208.55
2022-12-18T19:43:43.036Z,207.52
2022-12-18T19:46:46.277Z,189.63
2022-12-18T19:49:48.401Z,176.35
2022-12-18T19:52:50.453Z,149.00
2022-12-18T19:55:52.446Z,165.93
2022-12-18T19:58:54.996Z,162.32
2022-12-18T20:01:57.158Z,153.90
2022-12-18T20:04:59.336Z,146.80
2022-12-18T20:08:01.321Z,113.43
2022-12-18T20:11:04.049Z,125.82
2022-12-18T20:14:06.828Z,127.07
2022-12-18T20:17:08.978Z,112.50
2022-12-18T20:20:11.784Z,113.90
2022-12-18T20:23:15.346Z,98.88
2022-12-18T20:26:17.382Z,103.47
2022-12-18T20:29:19.577Z,109.75
2022-12-18T20:32:21.619Z,116.20
2022-12-18T20:35:23.816Z,115.85
2022-12-18T20:38:26.517Z,109.35
2022-12-18T20:41:37.414Z,118.43
2022-12-18T20:44:40.518Z,130.50
2022-12-18T20:47:42.504Z,119.10
2022-12-18T20:50:44.548Z,112.82
2022-12-18T20:53:47.015Z,115.50
2022-12-18T20:56:49.178Z,110.13
2022-12-18T20:59:51.185Z,112.20
2022-12-18T21:02:53.411Z,114.63
2022-12-18T21:05:55.528Z,98.47
2022-12-18T21:08:57.609Z,88.25
2022-12-18T21:12:18.340Z,76.35
2022-12-18T21:15:25.376Z,73.47
2022-12-18T21:18:30.800Z,59.73
2022-12-18T21:21:35.057Z,55.15
2022-12-18T21:24:40.795Z,47.13
2022-12-18T21:27:42.772Z,48.40
2022-12-18T21:30:45.127Z,48.13
2022-12-18T21:33:47.183Z,50.60
2022-12-18T21:36:50.273Z,50.40
2022-12-18T21:39:52.331Z,49.85
2022-12-18T21:43:13.944Z,50.13
2022-12-18T21:46:20.117Z,43.30
2022-12-18T21:49:22.232Z,47.03
2022-12-18T21:52:31.482Z,42.22
2022-12-18T21:55:36.172Z,42.42
2022-12-18T21:58:38.216Z,42.23
2022-12-18T22:02:00.047Z,37.35
2022-12-18T22:05:02.189Z,41.88
2022-12-18T22:08:05.123Z,45.70
2022-12-18T22:11:08.309Z,43.53
2022-12-18T22:14:10.957Z,41.97
2022-12-18T22:17:13.103Z,40.47
2022-12-18T22:20:16.188Z,38.53
2022-12-18T22:23:18.162Z,45.25
2022-12-18T22:26:20.612Z,49.45
2022-12-18T22:29:42.484Z,50.33
2022-12-18T22:32:44.531Z,47.58
2022-12-18T22:35:46.588Z,48.97
2022-12-18T22:38:48.716Z,47.13
2022-12-18T22:41:50.776Z,45.60
2022-12-18T22:44:52.816Z,44.28
2022-12-18T22:47:54.882Z,49.72
2022-12-18T22:50:59.585Z,44.87
2022-12-18T22:54:01.819Z,44.38
2022-12-18T22:57:04.715Z,43.88
2022-12-18T23:00:07.428Z,43.40
2022-12-18T23:03:09.900Z,43.92
2022-12-18T23:06:12.221Z,45.45
2022-12-18T23:09:15.691Z,41.17
2022-12-18T23:12:17.892Z,39.13
2022-12-18T23:15:27.818Z,45.13
2022-12-18T23:18:30.642Z,38.53
2022-12-18T23:21:32.701Z,36.17
2022-12-18T23:24:36.107Z,36.00
2022-12-18T23:27:38.086Z,37.28
2022-12-18T23:30:40.080Z,39.63
2022-12-18T23:33:42.262Z,37.13
2022-12-18T23:36:45.890Z,39.25
2022-12-18T23:39:48.740Z,39.15
2022-12-18T23:42:50.696Z,34.25
2022-12-18T23:45:55.823Z,42.22
2022-12-18T23:48:59.297Z,92.78
2022-12-18T23:52:01.286Z,88.10
2022-12-18T23:55:03.471Z,68.15
2022-12-18T23:58:05.582Z,64.65
